Stowell, TX (77661)

02:42 PM CST am 23. Februar 2017 (GMT -0600)
High Island Fire Rescue | | Change Station

Höhe 33 ft 29.56 °N, 94.39 °W | Updated 31 seconds ago

Heiter
Heiter
72.5 °F
gefühlte 72.5 °F
N
13.0
Wind Wechselnd Wind aus Ost
Gusts 17.4 mph

Heute
Max. -- | schwach -- °F
--% Regenrisiko
Gestern
Max. -- | schwach -- °F
Precip. -- inch
Druck 29.73 inch
Sichtweite 10.0 Meilen
Wolken Heiter
Taupunkt 69 °F
Feuchtigkeit 90%
Regen 0.00 inch
Schneehöhe Nicht verfügbar..
6:49 AM 6:12 PM
Letztes Viertel, 8% visible
METAR KBMT 232035Z AUTO 16008G15KT 140V200 10SM CLR 26/14 A2973 RMK AO2 T02550141
Druck 29.73 inch
Sichtweite 10.0 Meilen
Wolken Heiter
Taupunkt 69 °F
Feuchtigkeit 90%
Regen 0.00 inch
Schneehöhe Nicht verfügbar..
6:49 AM 6:12 PM
Letztes Viertel, 8% visible
METAR KBMT 232035Z AUTO 16008G15KT 140V200 10SM CLR 26/14 A2973 RMK AO2 T02550141

Get Your Daily Forecast Email!

Thanks for signing up!

Be on the lookout for a verification email in your inbox.

You'll start receiving the daily forecast at 8 AM.

×

10-Day Weather Forecast

Almanac

Astronomie

Feb. 23, 2017 Aufgang Untergang
Genaue Zeit
Bürgerliche Dämmerung
Nautische Dämmerung
Astronomische Dämmerung
Mond
Länge des sichtbaren Lichts
Tageslänge
Tomorrow will be .
, % of the Moon is Illuminated

Heutige Rekorde

State Highs State Lows

Community

WunderPhotos

Upload Photos

1,962,540 Fotos hochgeladen!

WunderBlog® & News

Nearby

Luftqualität

  Luftqualität LQ Index Schadstoff
Not available.

Schneehöhe

Station Depth Höhe

Erdbebenaktivität

Stadt Distance Mag. Time & Date
Minimum magnitude displayed is 2.5.

küstennahe Wassertemperaturen

Ort Temperatur

Stations

Wetterstationen in der Umgebung

Stationsstandort Temp. Windchill Taupunkt Feuchtigkeit Wind Precip. Höhe Aktualisiert Art
                   

Watches & Warnings

There are currently no watches in effect.